Terminal Aerodrome Forecast
Issued by NWS

Home | Current Version | Previous Version | Text Only | Print | Product List | Glossary On
Versions: 1 2 3 4 5 6 7 8 9 10 11 12 13 14
000
FTUS46 KMFR 201128
TAFLMT
TAF
KLMT 201128Z 2012/2112 36007KT 6SM FU FEW020
     FM210100 34010KT 4SM FU FEW020
     FM210800 36005KT 6SM FU SKC=

USA.gov is the U.S. government's official web portal to all federal, state and local government web resources and services.